sensor_id;sensor_type;location;lat;lon;timestamp;P1;durP1;ratioP1;P2;durP2;ratioP2
64712;SDS011;51140;45.340;5.980;2022-10-16T00:01:10;2.15;;;0.90;;
64712;SDS011;51140;45.340;5.980;2022-10-16T00:03:41;3.53;;;1.05;;
64712;SDS011;51140;45.340;5.980;2022-10-16T00:06:08;2.08;;;0.90;;
64712;SDS011;51140;45.340;5.980;2022-10-16T00:08:34;2.13;;;1.00;;
64712;SDS011;51140;45.340;5.980;2022-10-16T00:11:07;2.20;;;0.90;;
64712;SDS011;51140;45.340;5.980;2022-10-16T00:13:36;2.40;;;1.00;;
64712;SDS011;51140;45.340;5.980;2022-10-16T00:16:03;1.75;;;0.80;;
64712;SDS011;51140;45.340;5.980;2022-10-16T00:18:29;2.28;;;1.00;;
64712;SDS011;51140;45.340;5.980;2022-10-16T00:20:55;2.20;;;0.85;;
64712;SDS011;51140;45.340;5.980;2022-10-16T00:23:26;1.80;;;0.90;;
64712;SDS011;51140;45.340;5.980;2022-10-16T00:25:58;1.85;;;0.80;;
64712;SDS011;51140;45.340;5.980;2022-10-16T00:28:25;1.70;;;0.80;;
64712;SDS011;51140;45.340;5.980;2022-10-16T00:30:51;1.98;;;0.93;;
64712;SDS011;51140;45.340;5.980;2022-10-16T00:33:17;1.98;;;0.90;;
64712;SDS011;51140;45.340;5.980;2022-10-16T00:35:42;2.53;;;0.80;;
64712;SDS011;51140;45.340;5.980;2022-10-16T00:38:08;2.58;;;0.80;;
64712;SDS011;51140;45.340;5.980;2022-10-16T00:40:34;1.60;;;0.82;;
64712;SDS011;51140;45.340;5.980;2022-10-16T00:42:59;4.75;;;0.90;;
64712;SDS011;51140;45.340;5.980;2022-10-16T00:45:25;2.08;;;0.80;;
64712;SDS011;51140;45.340;5.980;2022-10-16T00:47:50;2.95;;;0.80;;
64712;SDS011;51140;45.340;5.980;2022-10-16T00:52:51;1.75;;;0.80;;
64712;SDS011;51140;45.340;5.980;2022-10-16T00:55:17;2.53;;;0.90;;
64712;SDS011;51140;45.340;5.980;2022-10-16T00:57:43;1.77;;;0.80;;
64712;SDS011;51140;45.340;5.980;2022-10-16T01:00:11;2.10;;;0.80;;
64712;SDS011;51140;45.340;5.980;2022-10-16T01:02:39;1.40;;;0.70;;
64712;SDS011;51140;45.340;5.980;2022-10-16T01:05:05;1.80;;;0.80;;
64712;SDS011;51140;45.340;5.980;2022-10-16T01:07:53;0.73;;;0.52;;
64712;SDS011;51140;45.340;5.980;2022-10-16T01:10:32;1.10;;;0.68;;
64712;SDS011;51140;45.340;5.980;2022-10-16T01:13:07;1.73;;;0.80;;
64712;SDS011;51140;45.340;5.980;2022-10-16T01:18:39;1.83;;;0.75;;
64712;SDS011;51140;45.340;5.980;2022-10-16T01:21:13;2.13;;;0.90;;
64712;SDS011;51140;45.340;5.980;2022-10-16T01:23:48;2.80;;;0.95;;
64712;SDS011;51140;45.340;5.980;2022-10-16T01:28:51;1.20;;;0.70;;
64712;SDS011;51140;45.340;5.980;2022-10-16T01:31:26;2.42;;;0.77;;
64712;SDS011;51140;45.340;5.980;2022-10-16T01:33:58;2.92;;;0.90;;
64712;SDS011;51140;45.340;5.980;2022-10-16T01:36:26;1.95;;;0.90;;
64712;SDS011;51140;45.340;5.980;2022-10-16T01:38:56;1.83;;;0.88;;
64712;SDS011;51140;45.340;5.980;2022-10-16T01:41:28;1.42;;;0.80;;
64712;SDS011;51140;45.340;5.980;2022-10-16T01:44:02;1.67;;;0.77;;
64712;SDS011;51140;45.340;5.980;2022-10-16T01:46:32;1.95;;;0.90;;
64712;SDS011;51140;45.340;5.980;2022-10-16T01:49:01;1.30;;;0.70;;
64712;SDS011;51140;45.340;5.980;2022-10-16T01:51:27;2.72;;;0.80;;
64712;SDS011;51140;45.340;5.980;2022-10-16T01:53:54;1.48;;;0.70;;
64712;SDS011;51140;45.340;5.980;2022-10-16T01:56:23;1.77;;;0.88;;
64712;SDS011;51140;45.340;5.980;2022-10-16T01:58:57;1.77;;;0.73;;
64712;SDS011;51140;45.340;5.980;2022-10-16T02:01:28;2.45;;;0.70;;
64712;SDS011;51140;45.340;5.980;2022-10-16T02:03:57;2.08;;;0.73;;
64712;SDS011;51140;45.340;5.980;2022-10-16T02:06:29;1.17;;;0.70;;
64712;SDS011;51140;45.340;5.980;2022-10-16T02:08:55;1.33;;;0.73;;
64712;SDS011;51140;45.340;5.980;2022-10-16T02:11:20;1.13;;;0.70;;
64712;SDS011;51140;45.340;5.980;2022-10-16T02:13:51;4.05;;;1.00;;
64712;SDS011;51140;45.340;5.980;2022-10-16T02:16:20;1.77;;;0.77;;
64712;SDS011;51140;45.340;5.980;2022-10-16T02:18:46;1.20;;;0.70;;
64712;SDS011;51140;45.340;5.980;2022-10-16T02:21:35;2.03;;;0.90;;
64712;SDS011;51140;45.340;5.980;2022-10-16T02:26:57;1.92;;;0.80;;
64712;SDS011;51140;45.340;5.980;2022-10-16T02:29:26;1.65;;;0.70;;
64712;SDS011;51140;45.340;5.980;2022-10-16T02:31:56;1.90;;;0.77;;
64712;SDS011;51140;45.340;5.980;2022-10-16T02:34:25;1.63;;;0.70;;
64712;SDS011;51140;45.340;5.980;2022-10-16T02:36:54;2.08;;;0.80;;
64712;SDS011;51140;45.340;5.980;2022-10-16T02:39:21;1.90;;;0.75;;
64712;SDS011;51140;45.340;5.980;2022-10-16T02:41:47;1.45;;;0.70;;
64712;SDS011;51140;45.340;5.980;2022-10-16T02:44:12;1.10;;;0.63;;
64712;SDS011;51140;45.340;5.980;2022-10-16T02:46:38;2.10;;;0.80;;
64712;SDS011;51140;45.340;5.980;2022-10-16T02:49:03;2.25;;;0.90;;
64712;SDS011;51140;45.340;5.980;2022-10-16T02:51:29;1.80;;;0.80;;
64712;SDS011;51140;45.340;5.980;2022-10-16T02:53:54;2.08;;;0.70;;
64712;SDS011;51140;45.340;5.980;2022-10-16T02:56:20;1.98;;;0.82;;
64712;SDS011;51140;45.340;5.980;2022-10-16T02:58:45;1.23;;;0.70;;
64712;SDS011;51140;45.340;5.980;2022-10-16T03:01:10;1.42;;;0.80;;
64712;SDS011;51140;45.340;5.980;2022-10-16T03:03:37;1.05;;;0.60;;
64712;SDS011;51140;45.340;5.980;2022-10-16T03:06:03;1.38;;;0.70;;
64712;SDS011;51140;45.340;5.980;2022-10-16T03:08:29;1.38;;;0.73;;
64712;SDS011;51140;45.340;5.980;2022-10-16T03:10:54;1.38;;;0.70;;
64712;SDS011;51140;45.340;5.980;2022-10-16T03:13:20;0.70;;;0.50;;
64712;SDS011;51140;45.340;5.980;2022-10-16T03:15:45;1.15;;;0.70;;
64712;SDS011;51140;45.340;5.980;2022-10-16T03:18:11;3.20;;;0.65;;
64712;SDS011;51140;45.340;5.980;2022-10-16T03:20:37;1.90;;;0.77;;
64712;SDS011;51140;45.340;5.980;2022-10-16T03:23:02;1.60;;;0.73;;
64712;SDS011;51140;45.340;5.980;2022-10-16T03:25:28;1.20;;;0.70;;
64712;SDS011;51140;45.340;5.980;2022-10-16T03:27:53;2.78;;;0.80;;
64712;SDS011;51140;45.340;5.980;2022-10-16T03:30:19;1.63;;;0.68;;
64712;SDS011;51140;45.340;5.980;2022-10-16T03:32:44;1.63;;;0.80;;
64712;SDS011;51140;45.340;5.980;2022-10-16T03:35:10;1.35;;;0.70;;
64712;SDS011;51140;45.340;5.980;2022-10-16T03:37:35;2.55;;;0.85;;
64712;SDS011;51140;45.340;5.980;2022-10-16T03:40:01;1.67;;;0.73;;
64712;SDS011;51140;45.340;5.980;2022-10-16T03:42:27;1.75;;;0.70;;
64712;SDS011;51140;45.340;5.980;2022-10-16T03:44:52;1.67;;;0.88;;
64712;SDS011;51140;45.340;5.980;2022-10-16T03:47:18;1.25;;;0.70;;
64712;SDS011;51140;45.340;5.980;2022-10-16T03:49:46;2.28;;;0.80;;
64712;SDS011;51140;45.340;5.980;2022-10-16T03:52:12;3.17;;;0.60;;
64712;SDS011;51140;45.340;5.980;2022-10-16T03:54:37;0.90;;;0.60;;
64712;SDS011;51140;45.340;5.980;2022-10-16T03:57:03;1.38;;;0.60;;
64712;SDS011;51140;45.340;5.980;2022-10-16T03:59:28;1.27;;;0.70;;
64712;SDS011;51140;45.340;5.980;2022-10-16T04:01:53;1.10;;;0.70;;
64712;SDS011;51140;45.340;5.980;2022-10-16T04:04:19;1.42;;;0.80;;
64712;SDS011;51140;45.340;5.980;2022-10-16T04:06:44;1.42;;;0.70;;
64712;SDS011;51140;45.340;5.980;2022-10-16T04:09:09;1.48;;;0.70;;
64712;SDS011;51140;45.340;5.980;2022-10-16T04:11:35;0.63;;;0.40;;
64712;SDS011;51140;45.340;5.980;2022-10-16T04:14:00;1.27;;;0.70;;
64712;SDS011;51140;45.340;5.980;2022-10-16T04:16:25;0.70;;;0.50;;
64712;SDS011;51140;45.340;5.980;2022-10-16T04:18:51;2.25;;;0.80;;
64712;SDS011;51140;45.340;5.980;2022-10-16T04:21:16;1.02;;;0.60;;
64712;SDS011;51140;45.340;5.980;2022-10-16T04:23:42;1.95;;;0.70;;
64712;SDS011;51140;45.340;5.980;2022-10-16T04:26:07;1.98;;;0.73;;
64712;SDS011;51140;45.340;5.980;2022-10-16T04:28:32;1.25;;;0.70;;
64712;SDS011;51140;45.340;5.980;2022-10-16T04:30:58;2.03;;;0.70;;
64712;SDS011;51140;45.340;5.980;2022-10-16T04:33:23;1.45;;;0.60;;
64712;SDS011;51140;45.340;5.980;2022-10-16T04:35:55;1.27;;;0.70;;
64712;SDS011;51140;45.340;5.980;2022-10-16T04:38:21;1.40;;;0.77;;
64712;SDS011;51140;45.340;5.980;2022-10-16T04:40:47;2.47;;;0.70;;
64712;SDS011;51140;45.340;5.980;2022-10-16T04:43:12;2.55;;;0.80;;
64712;SDS011;51140;45.340;5.980;2022-10-16T04:45:37;2.10;;;0.77;;
64712;SDS011;51140;45.340;5.980;2022-10-16T04:48:03;1.40;;;0.60;;
64712;SDS011;51140;45.340;5.980;2022-10-16T04:50:28;1.23;;;0.70;;
64712;SDS011;51140;45.340;5.980;2022-10-16T04:52:53;1.90;;;0.70;;
64712;SDS011;51140;45.340;5.980;2022-10-16T04:55:19;1.75;;;0.77;;
64712;SDS011;51140;45.340;5.980;2022-10-16T04:57:45;1.92;;;0.80;;
64712;SDS011;51140;45.340;5.980;2022-10-16T05:00:10;1.40;;;0.73;;
64712;SDS011;51140;45.340;5.980;2022-10-16T05:02:36;3.03;;;0.50;;
64712;SDS011;51140;45.340;5.980;2022-10-16T05:05:01;1.40;;;0.77;;
64712;SDS011;51140;45.340;5.980;2022-10-16T05:07:27;1.48;;;0.70;;
64712;SDS011;51140;45.340;5.980;2022-10-16T05:09:52;1.58;;;0.70;;
64712;SDS011;51140;45.340;5.980;2022-10-16T05:12:18;2.33;;;0.77;;
64712;SDS011;51140;45.340;5.980;2022-10-16T05:14:43;1.65;;;0.55;;
64712;SDS011;51140;45.340;5.980;2022-10-16T05:17:09;1.98;;;0.70;;
64712;SDS011;51140;45.340;5.980;2022-10-16T05:19:34;1.60;;;0.70;;
64712;SDS011;51140;45.340;5.980;2022-10-16T05:21:59;1.50;;;0.73;;
64712;SDS011;51140;45.340;5.980;2022-10-16T05:24:25;0.93;;;0.63;;
64712;SDS011;51140;45.340;5.980;2022-10-16T05:26:51;1.05;;;0.60;;
64712;SDS011;51140;45.340;5.980;2022-10-16T05:29:16;1.20;;;0.65;;
64712;SDS011;51140;45.340;5.980;2022-10-16T05:31:42;2.33;;;0.70;;
64712;SDS011;51140;45.340;5.980;2022-10-16T05:34:07;1.38;;;0.60;;
64712;SDS011;51140;45.340;5.980;2022-10-16T05:36:32;2.95;;;0.77;;
64712;SDS011;51140;45.340;5.980;2022-10-16T05:38:58;1.80;;;0.80;;
64712;SDS011;51140;45.340;5.980;2022-10-16T05:41:23;1.33;;;0.70;;
64712;SDS011;51140;45.340;5.980;2022-10-16T05:43:51;1.08;;;0.70;;
64712;SDS011;51140;45.340;5.980;2022-10-16T05:46:17;1.30;;;0.60;;
64712;SDS011;51140;45.340;5.980;2022-10-16T05:48:42;2.83;;;0.80;;
64712;SDS011;51140;45.340;5.980;2022-10-16T05:51:09;1.00;;;0.70;;
64712;SDS011;51140;45.340;5.980;2022-10-16T05:53:36;2.25;;;0.80;;
64712;SDS011;51140;45.340;5.980;2022-10-16T05:56:03;1.77;;;0.70;;
64712;SDS011;51140;45.340;5.980;2022-10-16T05:58:30;1.17;;;0.60;;
64712;SDS011;51140;45.340;5.980;2022-10-16T06:00:59;1.70;;;0.77;;
64712;SDS011;51140;45.340;5.980;2022-10-16T06:03:27;1.30;;;0.70;;
64712;SDS011;51140;45.340;5.980;2022-10-16T06:05:52;2.05;;;0.93;;
64712;SDS011;51140;45.340;5.980;2022-10-16T06:08:20;1.58;;;0.70;;
64712;SDS011;51140;45.340;5.980;2022-10-16T06:10:47;3.95;;;0.90;;
64712;SDS011;51140;45.340;5.980;2022-10-16T06:13:14;4.85;;;0.98;;
64712;SDS011;51140;45.340;5.980;2022-10-16T06:15:40;3.00;;;0.90;;
64712;SDS011;51140;45.340;5.980;2022-10-16T06:18:07;2.97;;;1.00;;
64712;SDS011;51140;45.340;5.980;2022-10-16T06:20:34;2.65;;;0.82;;
64712;SDS011;51140;45.340;5.980;2022-10-16T06:22:59;2.65;;;0.90;;
64712;SDS011;51140;45.340;5.980;2022-10-16T06:25:25;7.93;;;1.00;;
64712;SDS011;51140;45.340;5.980;2022-10-16T06:27:50;6.43;;;1.00;;
64712;SDS011;51140;45.340;5.980;2022-10-16T06:30:16;7.10;;;0.85;;
64712;SDS011;51140;45.340;5.980;2022-10-16T06:32:41;4.45;;;0.93;;
64712;SDS011;51140;45.340;5.980;2022-10-16T06:35:06;1.88;;;0.80;;
64712;SDS011;51140;45.340;5.980;2022-10-16T06:37:32;9.27;;;0.95;;
64712;SDS011;51140;45.340;5.980;2022-10-16T06:39:57;2.53;;;0.88;;
64712;SDS011;51140;45.340;5.980;2022-10-16T06:42:23;11.57;;;2.25;;
64712;SDS011;51140;45.340;5.980;2022-10-16T06:44:48;6.47;;;1.05;;
64712;SDS011;51140;45.340;5.980;2022-10-16T06:47:14;2.38;;;0.90;;
64712;SDS011;51140;45.340;5.980;2022-10-16T06:49:39;11.18;;;0.90;;
64712;SDS011;51140;45.340;5.980;2022-10-16T06:52:04;3.05;;;1.08;;
64712;SDS011;51140;45.340;5.980;2022-10-16T06:54:30;8.98;;;1.10;;
64712;SDS011;51140;45.340;5.980;2022-10-16T06:56:55;6.00;;;0.88;;
64712;SDS011;51140;45.340;5.980;2022-10-16T06:59:21;5.65;;;1.50;;
64712;SDS011;51140;45.340;5.980;2022-10-16T07:01:47;3.15;;;0.88;;
64712;SDS011;51140;45.340;5.980;2022-10-16T07:04:12;11.10;;;1.05;;
64712;SDS011;51140;45.340;5.980;2022-10-16T07:06:38;8.65;;;0.85;;
64712;SDS011;51140;45.340;5.980;2022-10-16T07:09:05;6.57;;;1.10;;
64712;SDS011;51140;45.340;5.980;2022-10-16T07:11:31;4.97;;;1.15;;
64712;SDS011;51140;45.340;5.980;2022-10-16T07:13:57;4.68;;;1.10;;
64712;SDS011;51140;45.340;5.980;2022-10-16T07:16:24;9.23;;;1.10;;
64712;SDS011;51140;45.340;5.980;2022-10-16T07:18:52;7.25;;;1.30;;
64712;SDS011;51140;45.340;5.980;2022-10-16T07:21:23;9.15;;;1.00;;
64712;SDS011;51140;45.340;5.980;2022-10-16T07:23:54;6.18;;;1.20;;
64712;SDS011;51140;45.340;5.980;2022-10-16T07:26:25;7.15;;;1.08;;
64712;SDS011;51140;45.340;5.980;2022-10-16T07:28:51;2.33;;;0.75;;
64712;SDS011;51140;45.340;5.980;2022-10-16T07:31:17;4.70;;;1.00;;
64712;SDS011;51140;45.340;5.980;2022-10-16T07:33:44;5.90;;;1.20;;
64712;SDS011;51140;45.340;5.980;2022-10-16T07:36:12;5.50;;;1.20;;
64712;SDS011;51140;45.340;5.980;2022-10-16T07:38:37;5.50;;;1.23;;
64712;SDS011;51140;45.340;5.980;2022-10-16T07:41:04;4.43;;;1.20;;
64712;SDS011;51140;45.340;5.980;2022-10-16T07:43:32;4.82;;;1.02;;
64712;SDS011;51140;45.340;5.980;2022-10-16T07:45:58;5.25;;;1.30;;
64712;SDS011;51140;45.340;5.980;2022-10-16T07:48:24;5.28;;;1.35;;
64712;SDS011;51140;45.340;5.980;2022-10-16T07:50:51;7.68;;;1.30;;
64712;SDS011;51140;45.340;5.980;2022-10-16T07:53:17;5.65;;;1.33;;
64712;SDS011;51140;45.340;5.980;2022-10-16T07:55:42;6.13;;;1.52;;
64712;SDS011;51140;45.340;5.980;2022-10-16T07:58:08;9.90;;;2.03;;
64712;SDS011;51140;45.340;5.980;2022-10-16T08:00:35;10.50;;;2.50;;
64712;SDS011;51140;45.340;5.980;2022-10-16T08:03:01;8.50;;;2.55;;
64712;SDS011;51140;45.340;5.980;2022-10-16T08:05:27;9.52;;;2.22;;
64712;SDS011;51140;45.340;5.980;2022-10-16T08:07:53;16.60;;;2.08;;
64712;SDS011;51140;45.340;5.980;2022-10-16T08:10:19;19.38;;;2.30;;
64712;SDS011;51140;45.340;5.980;2022-10-16T08:12:46;13.95;;;2.67;;
64712;SDS011;51140;45.340;5.980;2022-10-16T08:15:12;9.98;;;2.50;;
64712;SDS011;51140;45.340;5.980;2022-10-16T08:17:37;20.27;;;2.60;;
64712;SDS011;51140;45.340;5.980;2022-10-16T08:20:03;13.63;;;2.15;;
64712;SDS011;51140;45.340;5.980;2022-10-16T08:22:29;15.40;;;2.47;;
64712;SDS011;51140;45.340;5.980;2022-10-16T08:24:55;9.60;;;2.08;;
64712;SDS011;51140;45.340;5.980;2022-10-16T08:27:20;13.98;;;2.22;;
64712;SDS011;51140;45.340;5.980;2022-10-16T08:29:45;12.27;;;2.10;;
64712;SDS011;51140;45.340;5.980;2022-10-16T08:32:11;13.65;;;2.40;;
64712;SDS011;51140;45.340;5.980;2022-10-16T08:34:36;13.73;;;2.10;;
64712;SDS011;51140;45.340;5.980;2022-10-16T08:37:02;7.57;;;1.70;;
64712;SDS011;51140;45.340;5.980;2022-10-16T08:39:27;7.70;;;1.63;;
64712;SDS011;51140;45.340;5.980;2022-10-16T08:50:10;11.10;;;2.05;;
64712;SDS011;51140;45.340;5.980;2022-10-16T08:52:39;6.55;;;1.70;;
64712;SDS011;51140;45.340;5.980;2022-10-16T08:55:08;11.60;;;2.35;;
64712;SDS011;51140;45.340;5.980;2022-10-16T08:58:01;6.03;;;1.60;;
64712;SDS011;51140;45.340;5.980;2022-10-16T09:00:26;8.30;;;1.52;;
64712;SDS011;51140;45.340;5.980;2022-10-16T09:02:54;8.00;;;1.83;;
64712;SDS011;51140;45.340;5.980;2022-10-16T09:16:32;6.93;;;1.52;;
64712;SDS011;51140;45.340;5.980;2022-10-16T09:21:36;7.03;;;1.40;;
64712;SDS011;51140;45.340;5.980;2022-10-16T09:26:38;4.72;;;1.33;;
64712;SDS011;51140;45.340;5.980;2022-10-16T09:29:03;5.82;;;1.58;;
64712;SDS011;51140;45.340;5.980;2022-10-16T09:31:29;6.95;;;1.50;;
64712;SDS011;51140;45.340;5.980;2022-10-16T09:34:00;6.65;;;1.50;;
64712;SDS011;51140;45.340;5.980;2022-10-16T09:36:31;5.53;;;1.33;;
64712;SDS011;51140;45.340;5.980;2022-10-16T09:39:05;4.25;;;1.50;;
64712;SDS011;51140;45.340;5.980;2022-10-16T09:41:34;5.85;;;1.50;;
64712;SDS011;51140;45.340;5.980;2022-10-16T09:44:01;6.40;;;1.58;;
64712;SDS011;51140;45.340;5.980;2022-10-16T09:46:35;4.65;;;1.50;;
64712;SDS011;51140;45.340;5.980;2022-10-16T09:49:03;4.72;;;1.23;;
64712;SDS011;51140;45.340;5.980;2022-10-16T09:51:41;4.97;;;1.38;;
64712;SDS011;51140;45.340;5.980;2022-10-16T09:56:35;5.50;;;1.20;;
64712;SDS011;51140;45.340;5.980;2022-10-16T09:59:13;5.00;;;1.42;;
64712;SDS011;51140;45.340;5.980;2022-10-16T10:04:20;5.25;;;1.30;;
64712;SDS011;51140;45.340;5.980;2022-10-16T10:06:48;4.43;;;0.95;;
64712;SDS011;51140;45.340;5.980;2022-10-16T10:09:26;5.68;;;1.25;;
64712;SDS011;51140;45.340;5.980;2022-10-16T10:11:57;5.88;;;1.58;;
64712;SDS011;51140;45.340;5.980;2022-10-16T10:14:34;4.07;;;1.17;;
64712;SDS011;51140;45.340;5.980;2022-10-16T10:17:07;3.80;;;1.20;;
64712;SDS011;51140;45.340;5.980;2022-10-16T10:19:44;3.35;;;1.08;;
64712;SDS011;51140;45.340;5.980;2022-10-16T10:38:56;3.38;;;1.20;;
64712;SDS011;51140;45.340;5.980;2022-10-16T10:50:05;3.75;;;0.90;;
64712;SDS011;51140;45.340;5.980;2022-10-16T10:55:23;2.22;;;0.82;;
64712;SDS011;51140;45.340;5.980;2022-10-16T11:06:43;2.78;;;0.90;;
64712;SDS011;51140;45.340;5.980;2022-10-16T11:14:27;3.53;;;0.98;;
64712;SDS011;51140;45.340;5.980;2022-10-16T11:17:16;2.40;;;0.80;;
64712;SDS011;51140;45.340;5.980;2022-10-16T11:20:31;3.78;;;0.80;;
64712;SDS011;51140;45.340;5.980;2022-10-16T11:22:44;2.83;;;0.90;;
64712;SDS011;51140;45.340;5.980;2022-10-16T11:25:19;2.15;;;0.75;;
64712;SDS011;51140;45.340;5.980;2022-10-16T11:30:24;3.55;;;0.98;;
64712;SDS011;51140;45.340;5.980;2022-10-16T11:32:53;2.20;;;0.80;;
64712;SDS011;51140;45.340;5.980;2022-10-16T11:38:02;2.43;;;0.93;;
64712;SDS011;51140;45.340;5.980;2022-10-16T11:40:35;1.73;;;0.80;;
64712;SDS011;51140;45.340;5.980;2022-10-16T11:43:14;2.13;;;0.80;;
64712;SDS011;51140;45.340;5.980;2022-10-16T11:45:46;4.55;;;0.88;;
64712;SDS011;51140;45.340;5.980;2022-10-16T11:54:14;2.47;;;0.90;;
64712;SDS011;51140;45.340;5.980;2022-10-16T11:56:46;2.10;;;0.90;;
64712;SDS011;51140;45.340;5.980;2022-10-16T12:04:43;2.13;;;0.80;;
64712;SDS011;51140;45.340;5.980;2022-10-16T12:07:18;4.28;;;1.05;;
64712;SDS011;51140;45.340;5.980;2022-10-16T12:09:49;3.22;;;1.00;;
64712;SDS011;51140;45.340;5.980;2022-10-16T12:14:59;1.75;;;0.70;;
64712;SDS011;51140;45.340;5.980;2022-10-16T12:17:35;2.08;;;0.85;;
64712;SDS011;51140;45.340;5.980;2022-10-16T12:22:37;1.88;;;0.75;;
64712;SDS011;51140;45.340;5.980;2022-10-16T12:30:27;1.48;;;0.70;;
64712;SDS011;51140;45.340;5.980;2022-10-16T12:32:56;1.77;;;0.80;;
64712;SDS011;51140;45.340;5.980;2022-10-16T12:35:27;3.15;;;0.95;;
64712;SDS011;51140;45.340;5.980;2022-10-16T12:40:43;2.40;;;0.70;;
64712;SDS011;51140;45.340;5.980;2022-10-16T12:43:52;1.35;;;0.80;;
64712;SDS011;51140;45.340;5.980;2022-10-16T12:48:37;4.32;;;0.98;;
64712;SDS011;51140;45.340;5.980;2022-10-16T12:51:37;2.80;;;0.90;;
64712;SDS011;51140;45.340;5.980;2022-10-16T13:02:36;2.22;;;0.90;;
64712;SDS011;51140;45.340;5.980;2022-10-16T13:11:02;2.15;;;0.82;;
64712;SDS011;51140;45.340;5.980;2022-10-16T13:30:34;1.83;;;0.90;;
64712;SDS011;51140;45.340;5.980;2022-10-16T13:35:56;3.65;;;1.00;;
64712;SDS011;51140;45.340;5.980;2022-10-16T13:38:23;2.30;;;0.90;;
64712;SDS011;51140;45.340;5.980;2022-10-16T13:43:21;1.73;;;0.70;;
64712;SDS011;51140;45.340;5.980;2022-10-16T13:45:58;2.83;;;1.00;;
64712;SDS011;51140;45.340;5.980;2022-10-16T13:48:25;1.88;;;0.85;;
64712;SDS011;51140;45.340;5.980;2022-10-16T13:53:39;1.20;;;0.80;;
64712;SDS011;51140;45.340;5.980;2022-10-16T13:56:06;2.85;;;1.08;;
64712;SDS011;51140;45.340;5.980;2022-10-16T13:58:35;1.98;;;0.68;;
64712;SDS011;51140;45.340;5.980;2022-10-16T14:01:02;1.60;;;0.80;;
64712;SDS011;51140;45.340;5.980;2022-10-16T14:03:30;2.03;;;0.80;;
64712;SDS011;51140;45.340;5.980;2022-10-16T14:06:03;1.45;;;0.70;;
64712;SDS011;51140;45.340;5.980;2022-10-16T14:08:31;2.45;;;0.80;;
64712;SDS011;51140;45.340;5.980;2022-10-16T14:10:58;2.72;;;0.98;;
64712;SDS011;51140;45.340;5.980;2022-10-16T14:13:34;2.63;;;0.90;;
64712;SDS011;51140;45.340;5.980;2022-10-16T14:16:11;1.50;;;0.80;;
64712;SDS011;51140;45.340;5.980;2022-10-16T14:18:44;1.52;;;0.82;;
64712;SDS011;51140;45.340;5.980;2022-10-16T14:21:14;1.27;;;0.80;;
64712;SDS011;51140;45.340;5.980;2022-10-16T14:23:42;1.67;;;0.85;;
64712;SDS011;51140;45.340;5.980;2022-10-16T14:28:34;1.85;;;0.77;;
64712;SDS011;51140;45.340;5.980;2022-10-16T14:31:00;2.92;;;1.00;;
64712;SDS011;51140;45.340;5.980;2022-10-16T14:38:27;1.08;;;0.70;;
64712;SDS011;51140;45.340;5.980;2022-10-16T14:40:52;2.45;;;0.90;;
64712;SDS011;51140;45.340;5.980;2022-10-16T14:43:22;2.97;;;1.00;;
64712;SDS011;51140;45.340;5.980;2022-10-16T14:45:56;2.55;;;1.17;;
64712;SDS011;51140;45.340;5.980;2022-10-16T14:48:22;1.50;;;0.80;;
64712;SDS011;51140;45.340;5.980;2022-10-16T14:50:48;1.17;;;0.70;;
64712;SDS011;51140;45.340;5.980;2022-10-16T14:53:14;2.13;;;0.80;;
64712;SDS011;51140;45.340;5.980;2022-10-16T14:55:40;2.75;;;0.90;;
64712;SDS011;51140;45.340;5.980;2022-10-16T14:58:24;3.35;;;1.10;;
64712;SDS011;51140;45.340;5.980;2022-10-16T15:00:51;6.35;;;1.58;;
64712;SDS011;51140;45.340;5.980;2022-10-16T15:03:16;3.97;;;1.13;;
64712;SDS011;51140;45.340;5.980;2022-10-16T15:05:42;3.75;;;1.20;;
64712;SDS011;51140;45.340;5.980;2022-10-16T15:08:07;6.30;;;1.40;;
64712;SDS011;51140;45.340;5.980;2022-10-16T15:10:35;3.63;;;1.20;;
64712;SDS011;51140;45.340;5.980;2022-10-16T15:13:04;4.57;;;1.15;;
64712;SDS011;51140;45.340;5.980;2022-10-16T15:15:34;5.75;;;1.25;;
64712;SDS011;51140;45.340;5.980;2022-10-16T15:18:06;2.80;;;1.20;;
64712;SDS011;51140;45.340;5.980;2022-10-16T15:20:36;3.90;;;1.30;;
64712;SDS011;51140;45.340;5.980;2022-10-16T15:23:08;4.65;;;1.20;;
64712;SDS011;51140;45.340;5.980;2022-10-16T15:25:41;3.38;;;1.20;;
64712;SDS011;51140;45.340;5.980;2022-10-16T15:28:09;9.52;;;1.30;;
64712;SDS011;51140;45.340;5.980;2022-10-16T15:30:36;3.30;;;1.13;;
64712;SDS011;51140;45.340;5.980;2022-10-16T15:33:02;3.70;;;1.30;;
64712;SDS011;51140;45.340;5.980;2022-10-16T15:35:29;2.95;;;1.20;;
64712;SDS011;51140;45.340;5.980;2022-10-16T15:37:55;5.30;;;1.40;;
64712;SDS011;51140;45.340;5.980;2022-10-16T15:40:21;2.88;;;1.20;;
64712;SDS011;51140;45.340;5.980;2022-10-16T15:42:47;3.80;;;1.33;;
64712;SDS011;51140;45.340;5.980;2022-10-16T15:45:13;3.63;;;1.40;;
64712;SDS011;51140;45.340;5.980;2022-10-16T15:47:42;6.22;;;1.30;;
64712;SDS011;51140;45.340;5.980;2022-10-16T15:50:11;4.70;;;1.30;;
64712;SDS011;51140;45.340;5.980;2022-10-16T15:52:39;7.55;;;1.40;;
64712;SDS011;51140;45.340;5.980;2022-10-16T15:55:06;5.68;;;1.50;;
64712;SDS011;51140;45.340;5.980;2022-10-16T15:57:36;6.03;;;1.20;;
64712;SDS011;51140;45.340;5.980;2022-10-16T16:00:04;2.88;;;1.10;;
64712;SDS011;51140;45.340;5.980;2022-10-16T16:02:31;4.13;;;1.77;;
64712;SDS011;51140;45.340;5.980;2022-10-16T16:04:57;3.00;;;1.13;;
64712;SDS011;51140;45.340;5.980;2022-10-16T16:07:22;4.22;;;1.13;;
64712;SDS011;51140;45.340;5.980;2022-10-16T16:09:47;4.20;;;1.50;;
64712;SDS011;51140;45.340;5.980;2022-10-16T16:12:13;3.25;;;1.30;;
64712;SDS011;51140;45.340;5.980;2022-10-16T16:14:39;5.35;;;1.50;;
64712;SDS011;51140;45.340;5.980;2022-10-16T16:17:04;5.47;;;1.60;;
64712;SDS011;51140;45.340;5.980;2022-10-16T16:19:29;3.17;;;1.20;;
64712;SDS011;51140;45.340;5.980;2022-10-16T16:21:56;4.90;;;1.30;;
64712;SDS011;51140;45.340;5.980;2022-10-16T16:24:22;5.82;;;1.50;;
64712;SDS011;51140;45.340;5.980;2022-10-16T16:26:47;3.88;;;1.40;;
64712;SDS011;51140;45.340;5.980;2022-10-16T16:29:13;6.57;;;1.50;;
64712;SDS011;51140;45.340;5.980;2022-10-16T16:31:40;3.85;;;1.60;;
64712;SDS011;51140;45.340;5.980;2022-10-16T16:34:07;3.83;;;1.25;;
64712;SDS011;51140;45.340;5.980;2022-10-16T16:36:33;4.28;;;1.50;;
64712;SDS011;51140;45.340;5.980;2022-10-16T16:38:58;3.47;;;1.48;;
64712;SDS011;51140;45.340;5.980;2022-10-16T16:41:25;3.92;;;1.55;;
64712;SDS011;51140;45.340;5.980;2022-10-16T16:43:52;5.97;;;1.20;;
64712;SDS011;51140;45.340;5.980;2022-10-16T16:46:18;4.53;;;1.10;;
64712;SDS011;51140;45.340;5.980;2022-10-16T16:48:45;5.57;;;1.52;;
64712;SDS011;51140;45.340;5.980;2022-10-16T16:51:14;4.35;;;1.30;;
64712;SDS011;51140;45.340;5.980;2022-10-16T16:53:43;4.00;;;1.40;;
64712;SDS011;51140;45.340;5.980;2022-10-16T16:56:09;3.92;;;1.30;;
64712;SDS011;51140;45.340;5.980;2022-10-16T16:58:35;7.47;;;2.05;;
64712;SDS011;51140;45.340;5.980;2022-10-16T17:01:01;2.83;;;1.13;;
64712;SDS011;51140;45.340;5.980;2022-10-16T17:03:31;4.30;;;1.20;;
64712;SDS011;51140;45.340;5.980;2022-10-16T17:05:58;8.75;;;1.38;;
64712;SDS011;51140;45.340;5.980;2022-10-16T17:08:24;4.95;;;1.40;;
64712;SDS011;51140;45.340;5.980;2022-10-16T17:10:50;4.22;;;1.50;;
64712;SDS011;51140;45.340;5.980;2022-10-16T17:13:19;5.80;;;1.65;;
64712;SDS011;51140;45.340;5.980;2022-10-16T17:15:55;5.35;;;1.67;;
64712;SDS011;51140;45.340;5.980;2022-10-16T17:18:21;6.93;;;1.67;;
64712;SDS011;51140;45.340;5.980;2022-10-16T17:20:48;11.23;;;3.85;;
64712;SDS011;51140;45.340;5.980;2022-10-16T17:23:14;23.55;;;9.73;;
64712;SDS011;51140;45.340;5.980;2022-10-16T17:25:41;22.95;;;7.50;;
64712;SDS011;51140;45.340;5.980;2022-10-16T17:28:08;28.10;;;9.18;;
64712;SDS011;51140;45.340;5.980;2022-10-16T17:30:38;30.70;;;11.90;;
64712;SDS011;51140;45.340;5.980;2022-10-16T17:33:05;40.22;;;17.60;;